Time;durP1;ratioP1;P1;durP2;ratioP2;P2;SDS_P1;SDS_P2;PMS_P1;PMS_P2;Temp;Humidity;BMP_temperature;BMP_pressure;BME280_temperature;BME280_humidity;BME280_pressure;Samples;Min_cycle;Max_cycle;Signal;HPM_P1;HPM_P2
2022/03/04 00:02:12;;;;;;;34.43;13.77;;;;;;;-4.28;100.00;101333.63;5088570;28;20448;-71
2022/03/04 00:04:38;;;;;;;30.80;13.47;;;;;;;-4.16;100.00;101330.75;5085114;28;20448;-71
2022/03/04 00:07:05;;;;;;;37.63;13.53;;;;;;;-4.04;100.00;101335.53;5090414;28;20471;-72
2022/03/04 00:09:32;;;;;;;30.83;13.60;;;;;;;-4.00;100.00;101340.81;5070658;28;20441;-72
2022/03/04 00:12:00;;;;;;;36.30;15.00;;;;;;;-3.94;100.00;101349.53;5089166;28;20970;-71
2022/03/04 00:14:26;;;;;;;34.47;13.17;;;;;;;-3.86;100.00;101350.75;5090058;28;20462;-71
2022/03/04 00:16:53;;;;;;;38.50;14.27;;;;;;;-3.71;100.00;101342.91;5087888;28;20484;-71
2022/03/04 00:19:20;;;;;;;41.03;15.13;;;;;;;-3.61;100.00;101355.25;5090411;28;20445;-72
2022/03/04 00:21:49;;;;;;;44.33;15.70;;;;;;;-3.52;100.00;101352.22;5087951;28;20482;-72
2022/03/04 00:24:17;;;;;;;39.13;15.27;;;;;;;-3.44;100.00;101354.28;5073245;28;20825;-71
2022/03/04 00:26:46;;;;;;;49.50;17.63;;;;;;;-3.36;100.00;101358.84;5094568;28;20463;-72
2022/03/04 00:29:15;;;;;;;42.87;17.53;;;;;;;-3.26;100.00;101356.72;5075306;28;20461;-72
2022/03/04 00:31:43;;;;;;;46.97;16.23;;;;;;;-3.19;100.00;101352.75;5090993;28;20973;-72
2022/03/04 00:34:11;;;;;;;46.83;16.93;;;;;;;-3.14;100.00;101348.72;5097946;28;20455;-72
2022/03/04 00:36:39;;;;;;;44.47;16.07;;;;;;;-3.06;100.00;101354.13;5076758;28;20468;-71
2022/03/04 00:39:07;;;;;;;54.37;17.73;;;;;;;-2.99;100.00;101353.59;5091730;28;20859;-72
2022/03/04 00:41:34;;;;;;;53.10;17.80;;;;;;;-2.96;100.00;101348.59;5093900;28;20474;-71
2022/03/04 00:44:00;;;;;;;46.47;16.97;;;;;;;-2.92;100.00;101342.84;5089478;28;21571;-71
2022/03/04 00:46:28;;;;;;;51.00;17.80;;;;;;;-2.88;100.00;101339.59;5091779;28;20414;-71
2022/03/04 00:48:54;;;;;;;52.53;18.80;;;;;;;-2.82;100.00;101348.28;5093655;28;20443;-71
2022/03/04 00:51:21;;;;;;;49.03;17.77;;;;;;;-2.78;100.00;101348.50;5098054;22;20972;-74
2022/03/04 00:53:47;;;;;;;48.20;18.17;;;;;;;-2.76;100.00;101346.88;5068029;28;20199;-75
2022/03/04 00:56:14;;;;;;;46.73;17.80;;;;;;;-2.72;100.00;101348.72;5066118;28;20463;-74
2022/03/04 00:58:41;;;;;;;44.80;16.93;;;;;;;-2.68;100.00;101352.25;5069138;28;20195;-75
2022/03/04 01:01:08;;;;;;;44.80;16.67;;;;;;;-2.64;100.00;101343.91;5068429;28;20229;-75
2022/03/04 01:03:36;;;;;;;47.73;17.30;;;;;;;-2.62;100.00;101349.97;5067278;28;20199;-75
2022/03/04 01:06:04;;;;;;;44.63;18.10;;;;;;;-2.57;100.00;101345.00;5069112;28;20191;-75
2022/03/04 01:08:31;;;;;;;49.67;18.03;;;;;;;-2.55;100.00;101345.94;5071482;28;20610;-75
2022/03/04 01:10:57;;;;;;;61.27;18.37;;;;;;;-2.55;100.00;101344.28;5068525;28;20225;-75
2022/03/04 01:13:24;;;;;;;51.50;17.90;;;;;;;-2.52;100.00;101348.63;5070562;28;20600;-75
2022/03/04 01:15:51;;;;;;;49.10;17.43;;;;;;;-2.50;100.00;101347.88;5071365;28;20216;-75
2022/03/04 01:18:17;;;;;;;45.90;18.53;;;;;;;-2.48;100.00;101346.25;5070214;28;20206;-74
2022/03/04 01:20:45;;;;;;;46.80;17.93;;;;;;;-2.44;100.00;101348.94;5071304;28;20735;-75
2022/03/04 01:23:12;;;;;;;56.73;17.97;;;;;;;-2.43;100.00;101354.06;5067927;28;20207;-74
2022/03/04 01:25:38;;;;;;;49.57;17.97;;;;;;;-2.42;100.00;101355.84;5065119;28;20198;-75
2022/03/04 01:28:05;;;;;;;40.10;17.43;;;;;;;-2.38;100.00;101359.38;5071913;28;20207;-75
2022/03/04 01:30:31;;;;;;;50.83;18.57;;;;;;;-2.35;100.00;101354.38;5068945;28;20218;-75
2022/03/04 01:32:58;;;;;;;45.73;17.90;;;;;;;-2.36;100.00;101353.50;5069308;28;20206;-75
2022/03/04 01:35:25;;;;;;;45.43;17.90;;;;;;;-2.32;100.00;101349.41;5068842;28;20225;-74
2022/03/04 01:37:54;;;;;;;55.80;18.30;;;;;;;-2.32;100.00;101350.25;5065193;28;20205;-75
2022/03/04 01:40:21;;;;;;;49.40;18.83;;;;;;;-2.29;100.00;101346.94;5066868;28;20320;-75
2022/03/04 01:42:48;;;;;;;49.80;19.07;;;;;;;-2.28;100.00;101352.09;5066503;28;20274;-75
2022/03/04 01:45:15;;;;;;;55.37;18.00;;;;;;;-2.28;100.00;101348.69;5068757;28;20787;-75
2022/03/04 01:47:42;;;;;;;56.40;18.43;;;;;;;-2.24;100.00;101345.44;5067818;28;20258;-75
2022/03/04 01:50:09;;;;;;;40.97;18.13;;;;;;;-2.21;100.00;101350.66;5066900;28;20770;-75
2022/03/04 01:52:36;;;;;;;53.77;19.00;;;;;;;-2.23;100.00;101349.75;5068676;28;20212;-75
2022/03/04 01:55:05;;;;;;;55.83;19.00;;;;;;;-2.22;100.00;101351.47;5068742;28;20217;-75
2022/03/04 01:57:31;;;;;;;54.83;18.43;;;;;;;-2.20;100.00;101348.97;5070235;28;20217;-75
2022/03/04 01:59:58;;;;;;;48.73;18.13;;;;;;;-2.21;100.00;101348.13;5069427;28;20186;-75
2022/03/04 02:02:24;;;;;;;46.50;19.00;;;;;;;-2.18;100.00;101352.44;5068996;28;20198;-75
2022/03/04 02:04:51;;;;;;;41.33;17.93;;;;;;;-2.15;100.00;101348.31;5067995;28;20466;-75
2022/03/04 02:07:17;;;;;;;39.67;17.67;;;;;;;-2.12;100.00;101350.13;5069014;28;20195;-75
2022/03/04 02:09:43;;;;;;;56.27;18.70;;;;;;;-2.12;100.00;101350.13;5062231;28;20202;-75
2022/03/04 02:12:12;;;;;;;41.00;19.73;;;;;;;-2.10;100.00;101343.41;5068661;28;20225;-75
2022/03/04 02:14:38;;;;;;;37.77;16.23;;;;;;;-2.07;100.00;101342.66;5067476;28;20213;-75
2022/03/04 02:17:05;;;;;;;39.23;18.00;;;;;;;-2.04;100.00;101338.53;5069080;28;20902;-74
2022/03/04 02:19:31;;;;;;;47.67;18.97;;;;;;;-2.03;100.00;101336.84;5067134;28;20241;-75
2022/03/04 02:22:01;;;;;;;46.20;19.07;;;;;;;-2.03;100.00;101337.69;5069712;28;20648;-75
2022/03/04 02:24:30;;;;;;;41.53;16.20;;;;;;;-1.97;100.00;101339.59;5070626;28;20268;-75
2022/03/04 02:26:59;;;;;;;39.93;18.23;;;;;;;-1.97;100.00;101342.16;5068847;28;20446;-75
2022/03/04 02:29:26;;;;;;;38.37;17.30;;;;;;;-1.96;100.00;101343.91;5067311;28;20211;-75
2022/03/04 02:31:54;;;;;;;36.10;16.53;;;;;;;-1.93;100.00;101342.34;5068777;28;20579;-75
2022/03/04 02:34:22;;;;;;;45.37;17.57;;;;;;;-1.91;100.00;101347.50;5066418;28;20203;-75
2022/03/04 02:36:49;;;;;;;42.80;17.63;;;;;;;-1.89;100.00;101350.97;5068978;28;20220;-75
2022/03/04 02:39:18;;;;;;;39.83;18.07;;;;;;;-1.87;100.00;101351.91;5068725;28;20187;-75
2022/03/04 02:41:45;;;;;;;31.87;16.87;;;;;;;-1.84;100.00;101352.03;5065230;28;20230;-75
2022/03/04 02:44:13;;;;;;;39.00;17.50;;;;;;;-1.82;100.00;101352.06;5067178;28;20201;-74
2022/03/04 02:46:40;;;;;;;40.93;17.83;;;;;;;-1.80;100.00;101347.88;5066611;28;20194;-75
2022/03/04 02:49:10;;;;;;;36.50;17.07;;;;;;;-1.79;100.00;101347.09;5066642;28;20202;-75
2022/03/04 02:51:37;;;;;;;34.43;17.53;;;;;;;-1.77;100.00;101350.56;5062457;28;20235;-75
2022/03/04 02:54:04;;;;;;;37.27;15.63;;;;;;;-1.75;100.00;101364.25;5067863;28;20759;-75
2022/03/04 02:56:32;;;;;;;40.87;17.47;;;;;;;-1.73;100.00;101360.06;5066626;28;20222;-75
2022/03/04 02:58:58;;;;;;;35.93;16.50;;;;;;;-1.72;100.00;101344.78;5068731;28;20948;-75
2022/03/04 03:01:25;;;;;;;42.50;17.70;;;;;;;-1.70;100.00;101360.19;5064724;28;20584;-75
2022/03/04 03:03:52;;;;;;;34.13;16.83;;;;;;;-1.69;100.00;101348.25;5068491;28;20277;-75
2022/03/04 03:06:19;;;;;;;31.73;17.20;;;;;;;-1.66;100.00;101349.25;5070638;28;20206;-75
2022/03/04 03:08:45;;;;;;;35.80;16.77;;;;;;;-1.65;100.00;101353.56;5069301;28;20190;-75
2022/03/04 03:11:13;;;;;;;29.90;15.30;;;;;;;-1.62;100.00;101348.56;5067300;28;20226;-75
2022/03/04 03:13:40;;;;;;;40.90;17.90;;;;;;;-1.62;100.00;101358.78;5066967;28;20892;-75
2022/03/04 03:16:07;;;;;;;41.87;17.00;;;;;;;-1.60;100.00;101356.25;5066856;28;20214;-75
2022/03/04 03:18:35;;;;;;;34.77;16.57;;;;;;;-1.58;100.00;101359.75;5067283;28;20190;-75
2022/03/04 03:21:01;;;;;;;34.00;16.43;;;;;;;-1.56;100.00;101361.53;5068014;28;20692;-75
2022/03/04 03:23:27;;;;;;;33.60;16.13;;;;;;;-1.55;100.00;101355.63;5067841;28;20198;-75
2022/03/04 03:25:54;;;;;;;33.17;16.07;;;;;;;-1.53;100.00;101361.66;5067182;28;20186;-75
2022/03/04 03:28:21;;;;;;;30.73;16.63;;;;;;;-1.52;100.00;101362.50;5067446;28;20207;-75
2022/03/04 03:30:48;;;;;;;30.07;15.37;;;;;;;-1.50;100.00;101357.47;5067501;28;20230;-75
2022/03/04 03:33:15;;;;;;;37.07;16.53;;;;;;;-1.48;100.00;101363.50;5063724;28;20207;-75
2022/03/04 03:35:43;;;;;;;33.33;15.23;;;;;;;-1.48;100.00;101354.13;5067065;28;21012;-75
2022/03/04 03:38:09;;;;;;;30.53;15.93;;;;;;;-1.45;100.00;101358.50;5064748;28;20546;-75
2022/03/04 03:40:36;;;;;;;34.50;16.70;;;;;;;-1.44;100.00;101358.53;5064620;28;20488;-75
2022/03/04 03:43:03;;;;;;;30.57;16.17;;;;;;;-1.43;100.00;101364.53;5067460;28;20233;-75
2022/03/04 03:45:29;;;;;;;35.80;16.40;;;;;;;-1.44;100.00;101362.78;5064728;28;20584;-75
2022/03/04 03:47:57;;;;;;;33.00;15.83;;;;;;;-1.42;100.00;101367.13;5063263;28;20677;-75
2022/03/04 03:50:24;;;;;;;36.27;16.43;;;;;;;-1.41;100.00;101363.75;5071764;28;20583;-75
2022/03/04 03:52:50;;;;;;;36.13;16.80;;;;;;;-1.39;100.00;101369.81;5064230;28;20206;-75
2022/03/04 03:55:16;;;;;;;28.70;15.73;;;;;;;-1.37;100.00;101365.63;5064382;28;20203;-75
2022/03/04 03:57:43;;;;;;;35.10;16.63;;;;;;;-1.36;100.00;101358.78;5066551;28;20222;-75
2022/03/04 04:00:11;;;;;;;32.33;16.20;;;;;;;-1.36;100.00;101358.78;5065614;28;20198;-75
2022/03/04 04:02:41;;;;;;;35.00;16.50;;;;;;;-1.35;100.00;101358.84;5064942;28;20233;-75
2022/03/04 04:05:11;;;;;;;29.87;15.73;;;;;;;-1.33;100.00;101364.03;5063620;28;20190;-75
2022/03/04 04:07:38;;;;;;;30.93;15.77;;;;;;;-1.33;100.00;101364.88;5066195;28;20260;-75
2022/03/04 04:10:05;;;;;;;30.80;15.83;;;;;;;-1.31;100.00;101377.75;5066885;28;20240;-75
2022/03/04 04:12:32;;;;;;;36.03;17.00;;;;;;;-1.30;100.00;101376.03;5065118;28;20198;-75
2022/03/04 04:14:58;;;;;;;36.03;16.93;;;;;;;-1.29;100.00;101377.78;5066093;28;20214;-75
2022/03/04 04:17:24;;;;;;;31.00;15.80;;;;;;;-1.27;100.00;101378.72;5066131;28;20207;-75
2022/03/04 04:19:51;;;;;;;30.07;15.73;;;;;;;-1.26;100.00;101377.91;5060177;28;20199;-75
2022/03/04 04:22:19;;;;;;;32.47;15.80;;;;;;;-1.27;100.00;101371.91;5065994;28;20242;-75
2022/03/04 04:24:45;;;;;;;29.80;15.97;;;;;;;-1.25;100.00;101384.75;5065885;28;20258;-75
2022/03/04 04:27:12;;;;;;;40.57;17.47;;;;;;;-1.25;100.00;101379.63;5067912;28;20210;-75
2022/03/04 04:29:38;;;;;;;28.63;16.27;;;;;;;-1.23;100.00;101383.09;5062487;28;20202;-75
2022/03/04 04:32:05;;;;;;;34.97;16.80;;;;;;;-1.24;100.00;101376.25;5067629;28;20710;-75
2022/03/04 04:34:32;;;;;;;30.13;16.17;;;;;;;-1.22;100.00;101377.19;5065779;28;20731;-75
2022/03/04 04:36:58;;;;;;;30.67;15.53;;;;;;;-1.20;100.00;101375.53;5067552;28;20218;-75
2022/03/04 04:39:26;;;;;;;33.47;15.83;;;;;;;-1.19;100.00;101372.19;5062639;28;20202;-75
2022/03/04 04:41:52;;;;;;;28.27;15.73;;;;;;;-1.20;100.00;101368.72;5065809;28;20225;-75
2022/03/04 04:44:19;;;;;;;25.20;14.57;;;;;;;-1.19;100.00;101369.63;5064544;28;20203;-75
2022/03/04 04:46:45;;;;;;;31.57;14.87;;;;;;;-1.21;100.00;101359.31;5063721;28;20606;-75
2022/03/04 04:49:11;;;;;;;27.20;14.73;;;;;;;-1.21;100.00;101368.69;5064452;28;20680;-75
2022/03/04 04:51:38;;;;;;;29.47;15.37;;;;;;;-1.21;100.00;101364.44;5065450;28;20588;-75
2022/03/04 04:54:04;;;;;;;28.23;14.57;;;;;;;-1.23;100.00;101358.41;5063779;28;20199;-75
2022/03/04 04:56:32;;;;;;;32.83;16.10;;;;;;;-1.22;100.00;101357.56;5065977;28;20218;-75
2022/03/04 04:58:58;;;;;;;24.50;14.03;;;;;;;-1.21;100.00;101353.34;5064375;28;20195;-75
2022/03/04 05:01:25;;;;;;;26.97;13.80;;;;;;;-1.25;100.00;101352.38;5065085;28;20246;-75
2022/03/04 05:03:51;;;;;;;26.40;14.77;;;;;;;-1.26;100.00;101353.19;5065513;28;20209;-75
2022/03/04 05:06:18;;;;;;;26.47;14.57;;;;;;;-1.26;100.00;101360.00;5065768;28;20198;-75
2022/03/04 05:08:44;;;;;;;29.57;15.33;;;;;;;-1.25;100.00;101356.59;5064875;28;20205;-75
2022/03/04 05:11:11;;;;;;;28.83;13.37;;;;;;;-1.26;100.00;101349.75;5066752;28;20265;-75
2022/03/04 05:13:38;;;;;;;30.43;14.13;;;;;;;-1.26;100.00;101360.84;5069575;28;20203;-75
2022/03/04 05:16:05;;;;;;;28.13;14.07;;;;;;;-1.29;100.00;101360.75;5067567;28;20202;-75
2022/03/04 05:18:32;;;;;;;32.00;15.57;;;;;;;-1.28;100.00;101351.41;5068414;28;20222;-75
2022/03/04 05:20:59;;;;;;;27.03;13.73;;;;;;;-1.26;100.00;101357.44;5074488;28;20220;-75
2022/03/04 05:26:10;;;;;;;43.43;25.73;;;;;;;-1.27;100.00;101368.47;5068792;28;20198;-75
2022/03/04 05:28:36;;;;;;;28.00;13.67;;;;;;;-1.27;100.00;101371.03;5069730;28;20203;-75
2022/03/04 05:31:04;;;;;;;22.00;13.30;;;;;;;-1.27;100.00;101358.25;5068804;28;20584;-75
2022/03/04 05:33:30;;;;;;;24.57;13.57;;;;;;;-1.26;100.00;101370.22;5068724;28;20205;-75
2022/03/04 05:35:57;;;;;;;23.67;13.27;;;;;;;-1.26;100.00;101383.88;5069090;28;20210;-75
2022/03/04 05:38:23;;;;;;;24.73;12.77;;;;;;;-1.27;100.00;101379.56;5068601;28;20315;-75
2022/03/04 05:40:50;;;;;;;22.23;12.00;;;;;;;-1.26;100.00;101381.31;5068685;28;20715;-75
2022/03/04 05:43:16;;;;;;;19.23;11.27;;;;;;;-1.26;100.00;101383.88;5068996;28;20252;-75
2022/03/04 05:45:42;;;;;;;21.23;11.70;;;;;;;-1.24;100.00;101386.50;5066902;28;20222;-75
2022/03/04 05:48:11;;;;;;;22.60;12.50;;;;;;;-1.24;100.00;101389.91;5070287;28;20207;-75
2022/03/04 05:50:38;;;;;;;21.17;12.00;;;;;;;-1.25;100.00;101387.31;5065785;28;20620;-75
2022/03/04 05:53:04;;;;;;;18.20;11.23;;;;;;;-1.22;100.00;101397.66;5068685;28;20201;-75
2022/03/04 05:55:30;;;;;;;20.13;11.03;;;;;;;-1.21;100.00;101391.72;5067926;28;20194;-75
2022/03/04 05:57:57;;;;;;;16.60;10.73;;;;;;;-1.23;100.00;101401.91;5066101;28;20876;-75
2022/03/04 06:00:25;;;;;;;19.97;11.53;;;;;;;-1.21;100.00;101401.97;5064760;28;20772;-75
2022/03/04 06:02:52;;;;;;;22.20;11.53;;;;;;;-1.21;100.00;101402.84;5066088;28;20203;-75
2022/03/04 06:05:20;;;;;;;18.67;10.97;;;;;;;-1.20;100.00;101398.56;5063511;28;20280;-75
2022/03/04 06:07:46;;;;;;;17.77;11.43;;;;;;;-1.21;100.00;101402.84;5066793;28;20206;-75
2022/03/04 06:10:13;;;;;;;22.67;12.50;;;;;;;-1.20;100.00;101411.38;5068349;28;20278;-75
2022/03/04 06:12:39;;;;;;;21.63;12.47;;;;;;;-1.19;100.00;101411.44;5068002;28;20199;-75
2022/03/04 06:15:07;;;;;;;22.40;12.23;;;;;;;-1.17;100.00;101414.91;5068402;28;20278;-75
2022/03/04 06:17:33;;;;;;;20.60;11.53;;;;;;;-1.17;100.00;101422.56;5066921;28;20925;-75
2022/03/04 06:19:59;;;;;;;21.17;12.03;;;;;;;-1.14;100.00;101419.28;5067798;28;20225;-75
2022/03/04 06:22:27;;;;;;;19.77;11.00;;;;;;;-1.12;100.00;101425.31;5067751;28;20210;-75
2022/03/04 06:24:54;;;;;;;23.83;12.47;;;;;;;-1.12;100.00;101419.31;5067574;28;20198;-75
2022/03/04 06:27:20;;;;;;;22.90;12.63;;;;;;;-1.09;100.00;101427.09;5064760;28;20213;-75
2022/03/04 06:29:46;;;;;;;25.63;12.83;;;;;;;-1.08;100.00;101433.97;5067748;28;20204;-75
2022/03/04 06:32:13;;;;;;;23.07;12.17;;;;;;;-1.06;100.00;101435.75;5066124;28;20745;-75
2022/03/04 06:34:40;;;;;;;20.83;10.97;;;;;;;-1.03;100.00;101427.31;5067198;28;20597;-75
2022/03/04 06:37:07;;;;;;;21.17;12.20;;;;;;;-1.00;100.00;101428.28;5065965;28;20218;-75
2022/03/04 06:39:34;;;;;;;24.03;12.50;;;;;;;-0.97;100.00;101443.75;5067147;28;20205;-75
2022/03/04 06:42:02;;;;;;;19.77;11.23;;;;;;;-0.96;100.00;101448.03;5065534;28;20226;-75
2022/03/04 06:44:28;;;;;;;21.97;11.37;;;;;;;-0.96;100.00;101442.06;5067017;28;20213;-75
2022/03/04 06:46:55;;;;;;;22.83;11.33;;;;;;;-0.94;100.00;101447.25;5064908;28;20191;-75
2022/03/04 06:49:21;;;;;;;18.87;10.83;;;;;;;-0.94;100.00;101445.53;5064901;28;20199;-75
2022/03/04 06:51:47;;;;;;;21.43;11.10;;;;;;;-0.91;100.00;101448.22;5066773;28;20500;-75
2022/03/04 06:54:14;;;;;;;24.47;11.30;;;;;;;-0.93;100.00;101447.28;5068147;28;20198;-75
2022/03/04 06:56:41;;;;;;;23.57;11.47;;;;;;;-0.90;100.00;101451.63;5063413;28;20234;-75
2022/03/04 06:59:09;;;;;;;20.30;11.33;;;;;;;-0.88;100.00;101458.56;5066137;28;20201;-75
2022/03/04 07:01:48;;;;;;;20.73;10.80;;;;;;;-0.88;100.00;101456.00;5066577;28;20559;-74
2022/03/04 07:04:14;;;;;;;18.20;10.67;;;;;;;-0.85;100.00;101460.34;5070911;28;20413;-76
2022/03/04 07:06:40;;;;;;;20.13;9.73;;;;;;;-0.83;100.00;101459.56;5079999;28;20600;-75
2022/03/04 07:09:34;;;;;;;17.47;9.77;;;;;;;-0.82;100.00;101453.63;5068599;28;20203;-75
2022/03/04 07:15:52;;;;;;;20.47;9.30;;;;;;;-0.73;100.00;101455.63;5068303;28;20584;-75
2022/03/04 07:18:18;;;;;;;19.10;9.37;;;;;;;-0.69;100.00;101454.91;5081645;28;20227;-76
2022/03/04 07:20:44;;;;;;;15.57;9.07;;;;;;;-0.66;100.00;101459.28;5072298;28;20284;-75
2022/03/04 07:23:11;;;;;;;16.80;9.80;;;;;;;-0.65;100.00;101456.78;5070272;28;20211;-76
2022/03/04 07:25:37;;;;;;;17.63;9.60;;;;;;;-0.63;100.00;101465.38;5069183;28;20207;-76
2022/03/04 07:31:54;;;;;;;18.47;11.23;;;;;;;-0.48;100.00;101461.56;5068604;28;20956;-76
2022/03/04 07:34:21;;;;;;;14.80;9.87;;;;;;;-0.44;100.00;101471.97;5068182;28;20198;-76
2022/03/04 07:36:48;;;;;;;15.80;9.23;;;;;;;-0.41;100.00;101479.72;5063966;28;20202;-76
2022/03/04 07:43:02;;;;;;;15.80;8.87;;;;;;;-0.39;100.00;101483.25;5067586;28;20274;-75
2022/03/04 07:45:29;;;;;;;16.60;9.20;;;;;;;-0.33;100.00;101484.25;5066289;28;20213;-74
2022/03/04 07:51:45;;;;;;;20.73;10.40;;;;;;;-0.12;100.00;101490.06;5065974;28;20244;-76
2022/03/04 07:54:11;;;;;;;14.40;8.97;;;;;;;-0.09;100.00;101490.16;5068064;28;20207;-74
2022/03/04 07:56:38;;;;;;;15.27;10.23;;;;;;;-0.06;100.00;101486.81;5066982;28;20210;-76
2022/03/04 07:59:04;;;;;;;11.87;7.97;;;;;;;-0.06;100.00;101497.06;5067271;28;20275;-76
2022/03/04 08:01:30;;;;;;;13.43;8.53;;;;;;;-0.01;100.00;101498.94;5063164;28;20228;-75
2022/03/04 08:03:58;;;;;;;12.87;7.90;;;;;;;0.05;100.00;101505.09;5067093;28;20203;-76
2022/03/04 08:06:24;;;;;;;13.40;7.93;;;;;;;0.07;100.00;101506.00;5067210;28;20573;-75
2022/03/04 08:08:52;;;;;;;11.97;7.67;;;;;;;0.07;100.00;101504.34;5068197;28;20643;-76
2022/03/04 08:11:18;;;;;;;11.03;6.67;;;;;;;0.14;100.00;101506.25;5065152;28;20318;-75
2022/03/04 08:13:45;;;;;;;14.77;7.83;;;;;;;0.18;100.00;101512.34;5069469;28;20196;-76
2022/03/04 08:16:11;;;;;;;13.43;7.03;;;;;;;0.22;100.00;101511.59;5068854;28;20202;-76
2022/03/04 08:18:38;;;;;;;9.37;6.43;;;;;;;0.26;100.00;101512.56;5064964;28;20211;-74
2022/03/04 08:21:05;;;;;;;13.33;6.73;;;;;;;0.31;100.00;101509.31;5065455;28;20248;-74
2022/03/04 08:23:31;;;;;;;8.23;6.23;;;;;;;0.36;100.00;101512.88;5067291;28;20198;-76
2022/03/04 08:26:03;;;;;;;8.90;6.30;;;;;;;0.35;100.00;101516.28;5069340;28;20204;-76
2022/03/04 08:28:30;;;;;;;10.30;6.77;;;;;;;0.37;100.00;101514.66;5063989;28;20209;-76
2022/03/04 08:30:56;;;;;;;9.87;5.83;;;;;;;0.41;100.00;101512.19;5064864;28;20225;-76
2022/03/04 08:37:39;;;;;;;13.90;7.33;;;;;;;0.59;100.00;101525.53;5069446;28;20737;-76
2022/03/04 08:40:08;;;;;;;13.60;6.90;;;;;;;0.67;100.00;101518.03;5069460;28;20201;-75
2022/03/04 08:42:37;;;;;;;11.27;6.80;;;;;;;0.67;100.00;101521.50;5067872;28;20211;-76
2022/03/04 08:45:05;;;;;;;9.37;5.70;;;;;;;0.72;100.00;101522.50;5071121;28;20786;-75
2022/03/04 08:47:32;;;;;;;8.57;5.70;;;;;;;0.72;100.00;101525.06;5069059;28;20191;-74
2022/03/04 08:49:58;;;;;;;7.60;5.73;;;;;;;0.80;100.00;101530.41;5070542;28;20183;-72
2022/03/04 08:52:24;;;;;;;9.50;5.77;;;;;;;0.87;100.00;101527.19;5069403;28;20216;-75
2022/03/04 08:54:51;;;;;;;6.83;5.37;;;;;;;0.98;100.00;101529.19;5072348;28;20202;-76
2022/03/04 08:57:18;;;;;;;9.90;5.77;;;;;;;0.98;100.00;101527.47;5070689;28;20221;-76
2022/03/04 08:59:47;;;;;;;8.83;5.27;;;;;;;1.01;100.00;101530.13;5064050;28;20207;-75
2022/03/04 09:09:48;;;;;;;10.47;5.10;;;;;;;1.04;100.00;101537.03;5071889;28;20181;-76
2022/03/04 09:12:15;;;;;;;6.57;4.90;;;;;;;1.09;100.00;101531.22;5070252;28;20272;-76
2022/03/04 09:14:42;;;;;;;7.13;5.30;;;;;;;1.11;100.00;101532.13;5070935;28;20202;-73
2022/03/04 09:17:10;;;;;;;10.67;5.77;;;;;;;1.20;100.00;101539.22;5068840;28;20210;-76
2022/03/04 09:19:36;;;;;;;8.60;5.10;;;;;;;1.31;100.00;101539.50;5070924;28;21004;-75
2022/03/04 09:22:03;;;;;;;6.97;5.00;;;;;;;1.42;100.00;101537.22;5069572;28;20240;-76
2022/03/04 09:24:29;;;;;;;8.37;4.93;;;;;;;1.42;100.00;101532.94;5070350;28;20661;-76
2022/03/04 09:26:56;;;;;;;7.70;5.07;;;;;;;1.47;100.00;101540.78;5083545;28;20207;-76
2022/03/04 09:29:22;;;;;;;7.67;5.13;;;;;;;1.49;100.00;101534.81;5070579;28;20624;-73
2022/03/04 09:31:49;;;;;;;6.70;4.70;;;;;;;1.41;100.00;101536.34;5069241;28;20428;-75
2022/03/04 09:34:16;;;;;;;6.53;4.83;;;;;;;1.49;100.00;101542.53;5069801;28;20202;-76
2022/03/04 09:36:45;;;;;;;8.73;5.27;;;;;;;1.49;100.00;101542.53;5068474;28;20202;-76
2022/03/04 09:39:11;;;;;;;6.47;5.10;;;;;;;1.52;100.00;101554.63;5070119;28;20206;-73
2022/03/04 09:41:41;;;;;;;8.40;5.50;;;;;;;1.48;100.00;101548.53;5066784;28;20222;-76
2022/03/04 09:44:09;;;;;;;9.90;5.97;;;;;;;1.57;100.00;101539.31;5070614;28;20256;-75
2022/03/04 09:46:35;;;;;;;9.83;6.20;;;;;;;1.55;100.00;101547.00;5070777;28;20194;-75
2022/03/04 09:49:02;;;;;;;8.27;5.63;;;;;;;1.60;100.00;101547.09;5066499;28;20203;-75
2022/03/04 09:51:30;;;;;;;11.07;6.70;;;;;;;1.64;100.00;101546.34;5066275;28;20230;-76
2022/03/04 09:53:57;;;;;;;5.23;4.33;;;;;;;1.65;100.00;101548.97;5068159;28;20580;-76
2022/03/04 09:56:24;;;;;;;8.53;4.97;;;;;;;1.76;100.00;101548.34;5066926;28;20721;-75
2022/03/04 09:58:50;;;;;;;7.73;5.07;;;;;;;1.75;100.00;101551.75;5090354;28;20840;-75
2022/03/04 10:01:17;;;;;;;5.73;4.60;;;;;;;1.87;100.00;101547.78;5069876;28;20237;-75
2022/03/04 10:03:46;;;;;;;8.90;5.50;;;;;;;1.93;100.00;101554.75;5069680;28;20195;-74
2022/03/04 10:06:13;;;;;;;6.77;4.23;;;;;;;1.94;100.00;101551.38;5067438;28;20209;-75
2022/03/04 10:08:42;;;;;;;10.63;5.80;;;;;;;2.08;100.00;101552.56;5066502;28;20746;-75
2022/03/04 10:11:09;;;;;;;9.80;5.43;;;;;;;2.19;100.00;101549.38;5072005;28;20221;-73
2022/03/04 10:13:44;;;;;;;8.67;4.37;;;;;;;2.18;99.82;101548.53;5069709;28;20806;-75
2022/03/04 10:16:12;;;;;;;7.30;4.37;;;;;;;2.22;99.38;101549.47;5069698;28;20240;-76
2022/03/04 10:18:38;;;;;;;15.33;6.97;;;;;;;2.17;97.47;101558.78;5067903;28;20230;-73
2022/03/04 10:21:05;;;;;;;21.53;12.20;;;;;;;2.12;96.37;101556.09;5069066;28;20245;-76
2022/03/04 10:23:32;;;;;;;15.43;7.63;;;;;;;2.20;96.62;101557.13;5070287;28;20199;-74
2022/03/04 10:26:01;;;;;;;8.20;4.20;;;;;;;2.16;95.92;101557.88;5068773;28;20266;-75
2022/03/04 10:28:30;;;;;;;15.87;7.27;;;;;;;2.24;94.80;101568.38;5066610;28;20202;-75
2022/03/04 10:30:57;;;;;;;17.43;9.03;;;;;;;2.22;93.50;101567.47;5069554;28;20219;-73
2022/03/04 10:33:25;;;;;;;11.97;5.63;;;;;;;2.34;93.68;101570.31;5063240;28;20549;-75
2022/03/04 10:36:07;;;;;;;5.27;3.90;;;;;;;2.35;93.09;101569.47;5066124;28;20202;-75
2022/03/04 10:38:33;;;;;;;5.73;3.57;;;;;;;2.30;93.13;101576.22;5068389;28;20213;-75
2022/03/04 10:41:01;;;;;;;12.83;8.57;;;;;;;2.39;94.45;101571.31;5067736;28;20222;-75
2022/03/04 10:43:31;;;;;;;11.03;6.67;;;;;;;2.31;92.63;101574.53;5068552;28;20206;-75
2022/03/04 10:46:01;;;;;;;10.20;5.20;;;;;;;2.11;92.60;101572.38;5064989;28;20230;-73
2022/03/04 10:48:28;;;;;;;5.70;4.03;;;;;;;2.03;92.69;101582.47;5070240;28;20914;-75
2022/03/04 10:50:56;;;;;;;4.63;4.07;;;;;;;1.93;93.47;101575.34;5070265;28;20218;-76
2022/03/04 10:53:24;;;;;;;4.67;3.47;;;;;;;1.86;92.73;101581.16;5068722;28;20203;-76
2022/03/04 10:55:52;;;;;;;4.07;3.20;;;;;;;1.86;92.54;101571.75;5069826;28;20199;-75
2022/03/04 10:58:22;;;;;;;5.03;2.60;;;;;;;1.90;92.38;101572.72;5071405;28;20237;-74
2022/03/04 11:00:50;;;;;;;4.33;2.87;;;;;;;1.84;92.75;101568.28;5069242;28;20214;-74
2022/03/04 11:03:19;;;;;;;5.77;3.20;;;;;;;1.83;92.75;101574.25;5072853;28;20206;-73
2022/03/04 11:05:46;;;;;;;5.03;3.63;;;;;;;1.80;93.28;101568.19;5064901;28;20202;-76
2022/03/04 11:08:12;;;;;;;5.30;3.77;;;;;;;1.84;94.13;101573.41;5069817;28;20198;-73
2022/03/04 11:10:39;;;;;;;7.63;5.10;;;;;;;1.85;94.68;101569.16;5069653;28;20282;-75
2022/03/04 11:13:08;;;;;;;14.33;8.37;;;;;;;1.84;94.99;101568.28;5072757;28;20198;-75
2022/03/04 11:15:39;;;;;;;13.80;7.53;;;;;;;1.88;95.80;101564.06;5069824;28;20221;-75
2022/03/04 11:18:07;;;;;;;9.90;5.57;;;;;;;1.84;95.61;101563.13;5087130;28;20233;-75
2022/03/04 11:20:34;;;;;;;9.63;4.90;;;;;;;1.81;94.97;101567.31;5071636;28;20223;-73
2022/03/04 11:23:01;;;;;;;16.70;9.20;;;;;;;1.76;94.56;101559.53;5072535;28;20583;-74
2022/03/04 11:25:38;;;;;;;5.43;3.80;;;;;;;1.79;95.61;101562.13;5067462;28;20230;-74
2022/03/04 11:28:10;;;;;;;9.20;5.90;;;;;;;1.77;95.05;101561.25;5069055;28;20645;-74
2022/03/04 11:30:41;;;;;;;8.07;4.83;;;;;;;1.74;95.20;101563.72;5074185;28;20723;-72
2022/03/04 11:33:17;;;;;;;13.50;8.23;;;;;;;1.80;94.96;101556.19;5068345;28;20206;-74
2022/03/04 11:36:13;;;;;;;6.47;4.00;;;;;;;1.87;95.49;101562.34;5074409;28;20532;-74
2022/03/04 11:39:09;;;;;;;6.40;3.10;;;;;;;1.92;95.66;101560.75;5057211;28;20215;-76
2022/03/04 11:42:09;;;;;;;4.03;2.90;;;;;;;1.90;95.13;101562.44;5068258;28;20780;-75